createdAt,value
2019-03-08T00:01:49.307Z,91.40
2019-03-08T00:04:20.063Z,90.60
2019-03-08T00:06:50.808Z,90.60
2019-03-08T00:09:21.537Z,89.40
2019-03-08T00:11:52.220Z,90.50
2019-03-08T00:14:22.968Z,90.50
2019-03-08T00:16:53.677Z,90.70
2019-03-08T00:19:24.450Z,90.10
2019-03-08T00:21:55.157Z,90.70
2019-03-08T00:24:26.843Z,90.00
2019-03-08T00:26:57.562Z,90.00
2019-03-08T00:29:28.305Z,89.00
2019-03-08T00:31:59.000Z,89.60
2019-03-08T00:34:29.698Z,88.10
2019-03-08T00:37:00.403Z,87.80
2019-03-08T00:39:31.129Z,87.50
2019-03-08T00:42:01.866Z,87.30
2019-03-08T00:44:32.613Z,86.90
2019-03-08T00:47:03.322Z,87.00
2019-03-08T00:49:34.045Z,84.70
2019-03-08T00:52:04.711Z,85.80
2019-03-08T00:54:35.457Z,85.30
2019-03-08T00:57:06.174Z,84.70
2019-03-08T00:59:36.910Z,85.30
2019-03-08T01:02:07.645Z,84.90
2019-03-08T01:04:38.391Z,84.80
2019-03-08T01:07:09.113Z,84.60
2019-03-08T01:09:39.872Z,84.50
2019-03-08T01:12:10.550Z,83.90
2019-03-08T01:14:41.296Z,82.70
2019-03-08T01:17:11.943Z,82.30
2019-03-08T01:19:42.649Z,83.50
2019-03-08T01:22:13.376Z,82.70
2019-03-08T01:24:44.172Z,81.70
2019-03-08T01:27:14.878Z,81.60
2019-03-08T01:29:45.566Z,78.50
2019-03-08T01:32:16.301Z,79.20
2019-03-08T01:34:47.077Z,76.70
2019-03-08T01:37:17.834Z,74.60
2019-03-08T01:39:48.558Z,75.30
2019-03-08T01:42:19.326Z,73.10
2019-03-08T01:44:50.041Z,73.80
2019-03-08T01:47:20.759Z,74.30
2019-03-08T01:49:51.444Z,74.00
2019-03-08T01:52:22.180Z,74.20
2019-03-08T01:54:52.897Z,74.50
2019-03-08T01:57:23.664Z,75.40
2019-03-08T01:59:54.379Z,75.90
2019-03-08T02:02:25.106Z,75.40
2019-03-08T02:04:55.821Z,76.10
2019-03-08T02:07:26.578Z,76.20
2019-03-08T02:09:57.264Z,77.10
2019-03-08T02:12:28.000Z,77.10
2019-03-08T02:14:58.736Z,78.20
2019-03-08T02:17:29.443Z,78.60
2019-03-08T02:20:00.319Z,79.90
2019-03-08T02:22:31.205Z,79.70
2019-03-08T02:25:01.891Z,78.30
2019-03-08T02:27:32.628Z,78.20
2019-03-08T02:30:03.393Z,78.50
2019-03-08T02:32:34.131Z,79.70
2019-03-08T02:35:05.307Z,80.40
2019-03-08T02:37:36.092Z,80.70
2019-03-08T02:40:41.337Z,80.40
2019-03-08T02:43:17.229Z,80.50
2019-03-08T02:45:47.986Z,78.50
2019-03-08T02:48:18.677Z,78.90
2019-03-08T02:50:49.432Z,79.30
2019-03-08T02:53:20.374Z,78.50
2019-03-08T02:55:51.035Z,78.90
2019-03-08T02:58:21.841Z,79.30
2019-03-08T03:00:52.569Z,79.80
2019-03-08T03:03:23.305Z,80.00
2019-03-08T03:05:54.121Z,79.60
2019-03-08T03:08:24.837Z,78.80
2019-03-08T03:10:55.563Z,79.50
2019-03-08T03:13:26.311Z,79.40
2019-03-08T03:15:57.048Z,80.20
2019-03-08T03:18:27.771Z,80.80
2019-03-08T03:20:58.467Z,81.30
2019-03-08T03:23:29.223Z,82.30
2019-03-08T03:25:59.940Z,82.80
2019-03-08T03:28:30.686Z,83.50
2019-03-08T03:31:01.554Z,83.60
2019-03-08T03:33:32.283Z,84.80
2019-03-08T03:36:03.026Z,85.30
2019-03-08T03:38:33.812Z,85.70
2019-03-08T03:41:04.501Z,86.00
2019-03-08T03:43:35.444Z,86.10
2019-03-08T03:46:06.190Z,85.90
2019-03-08T03:48:36.938Z,86.50
2019-03-08T03:51:07.597Z,86.60
2019-03-08T03:53:38.339Z,86.50
2019-03-08T03:56:09.286Z,86.50
2019-03-08T03:58:40.051Z,86.00
2019-03-08T04:01:39.028Z,86.60
2019-03-08T04:04:09.752Z,87.60
2019-03-08T04:06:40.497Z,87.00
2019-03-08T04:09:12.862Z,87.30
2019-03-08T04:11:43.621Z,87.10
2019-03-08T04:14:14.347Z,87.40
2019-03-08T04:16:45.051Z,88.10
2019-03-08T04:19:15.788Z,88.70
2019-03-08T04:21:46.525Z,89.10
2019-03-08T04:24:17.294Z,88.80
2019-03-08T04:26:48.017Z,89.30
2019-03-08T04:29:18.752Z,89.30
2019-03-08T04:31:49.509Z,89.50
2019-03-08T04:34:20.235Z,89.60
2019-03-08T04:36:50.973Z,89.10
2019-03-08T04:39:21.737Z,89.40
2019-03-08T04:41:52.630Z,89.50
2019-03-08T04:44:23.399Z,88.80
2019-03-08T04:46:55.237Z,89.00
2019-03-08T04:49:26.042Z,88.70
2019-03-08T04:51:56.748Z,89.20
2019-03-08T04:54:27.575Z,89.70
2019-03-08T04:56:58.311Z,89.80
2019-03-08T04:59:29.019Z,89.60
2019-03-08T05:01:59.793Z,89.70
2019-03-08T05:04:30.520Z,90.40
2019-03-08T05:07:01.607Z,91.30
2019-03-08T05:09:32.292Z,92.60
2019-03-08T05:12:03.008Z,92.70
2019-03-08T05:14:33.724Z,92.60
2019-03-08T05:17:04.462Z,92.70
2019-03-08T05:19:35.478Z,92.70
2019-03-08T05:22:06.243Z,92.70
2019-03-08T05:24:36.929Z,92.50
2019-03-08T05:27:08.958Z,93.10
2019-03-08T05:29:39.642Z,93.70
2019-03-08T05:32:10.708Z,94.70
2019-03-08T05:34:41.354Z,95.50
2019-03-08T05:37:12.081Z,96.20
2019-03-08T05:39:42.817Z,96.50
2019-03-08T05:42:14.926Z,96.70
2019-03-08T05:44:45.820Z,97.10
2019-03-08T05:47:16.527Z,97.90
2019-03-08T05:49:47.192Z,97.60
2019-03-08T05:52:17.943Z,97.00
2019-03-08T05:54:48.644Z,97.40
2019-03-08T05:57:19.693Z,97.10
2019-03-08T05:59:50.461Z,97.00
2019-03-08T06:02:21.155Z,97.30
2019-03-08T06:04:51.909Z,97.60
2019-03-08T06:07:22.635Z,97.60
2019-03-08T06:09:53.332Z,97.50
2019-03-08T06:12:24.079Z,97.30
2019-03-08T06:14:54.774Z,97.20
2019-03-08T06:17:25.511Z,97.10
2019-03-08T06:19:56.217Z,97.00
2019-03-08T06:22:26.886Z,97.00
2019-03-08T06:24:57.601Z,97.30
2019-03-08T06:27:28.336Z,97.30
2019-03-08T06:29:59.015Z,97.40
2019-03-08T06:32:29.751Z,96.80
2019-03-08T06:35:00.543Z,96.60
2019-03-08T06:37:32.631Z,96.60
2019-03-08T06:40:03.358Z,96.60
2019-03-08T06:42:34.143Z,95.00
2019-03-08T06:45:05.221Z,95.70
2019-03-08T06:47:35.995Z,95.60
2019-03-08T06:50:07.574Z,95.50
2019-03-08T06:52:38.309Z,95.30
2019-03-08T06:55:09.638Z,95.60
2019-03-08T06:57:40.340Z,94.70
2019-03-08T07:00:31.773Z,94.30
2019-03-08T07:03:02.830Z,94.60
2019-03-08T07:05:33.545Z,95.30
2019-03-08T07:08:04.280Z,95.40
2019-03-08T07:10:34.999Z,95.70
2019-03-08T07:13:05.738Z,95.30
2019-03-08T07:15:36.461Z,95.70
2019-03-08T07:18:12.694Z,95.70
2019-03-08T07:20:47.886Z,95.80
2019-03-08T07:23:40.867Z,95.20
2019-03-08T07:26:42.862Z,95.70
2019-03-08T07:29:35.562Z,96.10
2019-03-08T07:32:37.687Z,96.60
2019-03-08T07:35:25.936Z,97.40
2019-03-08T07:38:07.795Z,97.80
2019-03-08T07:41:00.496Z,96.90
2019-03-08T07:43:49.412Z,97.40
2019-03-08T07:46:51.040Z,97.90
2019-03-08T07:49:33.507Z,97.30
2019-03-08T07:52:11.458Z,97.50
2019-03-08T07:55:01.142Z,98.00
2019-03-08T07:57:50.828Z,98.00
2019-03-08T08:00:32.396Z,97.70
2019-03-08T08:03:20.738Z,98.10
2019-03-08T08:05:58.431Z,98.60
2019-03-08T08:09:13.112Z,98.90
2019-03-08T08:12:01.485Z,99.90
2019-03-08T08:15:00.378Z,99.90
2019-03-08T08:17:40.935Z,99.90
2019-03-08T08:20:30.666Z,99.90
2019-03-08T08:23:15.917Z,99.90
2019-03-08T08:25:59.425Z,99.90
2019-03-08T08:28:50.182Z,99.90
2019-03-08T08:31:48.389Z,99.90
2019-03-08T08:34:27.027Z,99.90
2019-03-08T08:37:19.739Z,99.90
2019-03-08T08:40:01.490Z,99.90
2019-03-08T08:42:49.609Z,99.90
2019-03-08T08:45:27.736Z,99.90
2019-03-08T08:48:26.778Z,99.90
2019-03-08T08:51:13.330Z,99.90
2019-03-08T08:53:55.502Z,99.90
2019-03-08T08:56:44.178Z,99.90
2019-03-08T08:59:23.616Z,99.90
2019-03-08T09:02:16.307Z,99.90
2019-03-08T09:05:21.152Z,99.90
2019-03-08T09:08:01.454Z,99.90
2019-03-08T09:11:00.144Z,99.90
2019-03-08T09:13:40.201Z,99.90
2019-03-08T09:16:30.215Z,99.90
2019-03-08T09:19:17.005Z,99.90
2019-03-08T09:22:00.043Z,99.90
2019-03-08T09:24:49.701Z,99.90
2019-03-08T09:27:47.565Z,99.90
2019-03-08T09:30:28.255Z,99.90
2019-03-08T09:33:20.765Z,99.90
2019-03-08T09:36:00.072Z,99.90
2019-03-08T09:38:52.904Z,99.90
2019-03-08T09:41:31.934Z,99.90
2019-03-08T09:44:24.693Z,99.90
2019-03-08T09:47:18.485Z,99.90
2019-03-08T09:50:06.794Z,99.90
2019-03-08T09:52:55.206Z,99.90
2019-03-08T09:55:34.643Z,99.90
2019-03-08T09:58:23.894Z,99.90
2019-03-08T10:01:16.423Z,99.90
2019-03-08T10:03:54.453Z,99.90
2019-03-08T10:06:34.990Z,99.90
2019-03-08T10:09:32.619Z,99.90
2019-03-08T10:12:21.257Z,99.90
2019-03-08T10:15:26.127Z,99.90
2019-03-08T10:18:34.319Z,99.90
2019-03-08T10:21:26.995Z,99.90
2019-03-08T10:24:10.239Z,99.90
2019-03-08T10:27:21.020Z,99.90
2019-03-08T10:29:59.787Z,99.90
2019-03-08T10:32:54.440Z,99.90
2019-03-08T10:35:53.373Z,99.00
2019-03-08T10:38:38.591Z,96.70
2019-03-08T10:41:31.293Z,97.30
2019-03-08T10:44:11.646Z,96.20
2019-03-08T10:47:08.504Z,95.40
2019-03-08T10:49:55.812Z,95.90
2019-03-08T10:52:39.914Z,96.80
2019-03-08T10:55:39.599Z,97.20
2019-03-08T10:58:28.257Z,97.20
2019-03-08T11:01:20.928Z,93.50
2019-03-08T11:04:20.121Z,95.00
2019-03-08T11:07:12.823Z,91.60
2019-03-08T11:10:14.557Z,93.40
2019-03-08T11:13:07.287Z,97.20
2019-03-08T11:16:09.015Z,92.00
2019-03-08T11:18:57.331Z,90.30
2019-03-08T11:21:53.124Z,88.80
2019-03-08T11:25:08.130Z,89.20
2019-03-08T11:27:59.572Z,87.50
2019-03-08T11:30:53.884Z,86.60
2019-03-08T11:33:49.091Z,83.50
2019-03-08T11:36:38.777Z,81.90
2019-03-08T11:39:44.853Z,82.40
2019-03-08T11:42:40.553Z,81.10
2019-03-08T11:45:30.597Z,80.30
2019-03-08T11:48:20.216Z,78.40
2019-03-08T11:51:03.895Z,80.00
2019-03-08T11:53:45.594Z,79.40
2019-03-08T11:56:36.756Z,75.00
2019-03-08T11:59:21.124Z,76.80
2019-03-08T12:02:16.551Z,75.70
2019-03-08T12:05:04.887Z,73.50
2019-03-08T12:08:03.722Z,74.10
2019-03-08T12:10:53.412Z,78.30
2019-03-08T12:13:43.052Z,74.70
2019-03-08T12:16:20.770Z,74.50
2019-03-08T12:19:19.834Z,73.40
2019-03-08T12:21:59.301Z,73.50
2019-03-08T12:24:46.711Z,74.40
2019-03-08T12:27:29.913Z,70.90
2019-03-08T12:30:18.563Z,70.50
2019-03-08T12:32:58.531Z,72.80
2019-03-08T12:35:41.310Z,72.10
2019-03-08T12:38:36.353Z,71.10
2019-03-08T12:41:44.267Z,67.40
2019-03-08T12:44:23.165Z,65.00
2019-03-08T12:47:09.425Z,65.60
2019-03-08T12:49:59.095Z,68.40
2019-03-08T12:52:46.745Z,68.60
2019-03-08T12:55:28.074Z,70.30
2019-03-08T12:58:13.994Z,64.80
2019-03-08T13:01:02.635Z,62.40
2019-03-08T13:03:56.238Z,61.60
2019-03-08T13:06:39.506Z,60.00
2019-03-08T13:09:26.546Z,57.30
2019-03-08T13:11:57.335Z,57.30
2019-03-08T13:14:28.117Z,53.50
2019-03-08T13:16:58.826Z,46.90
2019-03-08T13:19:29.566Z,45.40
2019-03-08T13:22:00.318Z,45.50
2019-03-08T13:24:31.043Z,44.10
2019-03-08T13:27:01.830Z,46.40
2019-03-08T13:29:32.544Z,46.60
2019-03-08T13:32:03.382Z,46.90
2019-03-08T13:34:34.232Z,46.00
2019-03-08T13:37:04.974Z,47.50
2019-03-08T13:39:35.692Z,45.60
2019-03-08T13:42:07.376Z,44.80
2019-03-08T13:44:38.102Z,45.30
2019-03-08T13:47:09.100Z,48.70
2019-03-08T13:49:39.784Z,52.40
2019-03-08T13:52:10.568Z,54.10
2019-03-08T13:54:41.287Z,55.60
2019-03-08T13:57:12.063Z,56.10
2019-03-08T13:59:42.770Z,54.00
2019-03-08T14:02:13.526Z,54.70
2019-03-08T14:04:44.652Z,55.00
2019-03-08T14:07:15.518Z,54.60
2019-03-08T14:09:46.275Z,55.10
2019-03-08T14:12:16.971Z,56.50
2019-03-08T14:14:47.828Z,56.70
2019-03-08T14:17:18.523Z,57.90
2019-03-08T14:19:49.299Z,59.10
2019-03-08T14:22:19.995Z,58.80
2019-03-08T14:24:50.782Z,57.60
2019-03-08T14:27:21.518Z,50.60
2019-03-08T14:29:55.185Z,52.00
2019-03-08T14:32:26.911Z,52.70
2019-03-08T14:34:57.681Z,56.70
2019-03-08T14:37:28.413Z,58.40
2019-03-08T14:39:59.190Z,60.10
2019-03-08T14:42:37.007Z,62.20
2019-03-08T14:45:13.655Z,62.70
2019-03-08T14:47:47.033Z,61.10
2019-03-08T14:50:17.791Z,61.00
2019-03-08T14:52:48.503Z,62.90
2019-03-08T14:55:22.627Z,60.70
2019-03-08T14:57:55.050Z,62.70
2019-03-08T15:00:25.180Z,62.60
2019-03-08T15:02:56.750Z,62.90
2019-03-08T15:05:27.529Z,65.00
2019-03-08T15:07:58.281Z,64.10
2019-03-08T15:10:29.010Z,64.90
2019-03-08T15:12:59.765Z,65.10
2019-03-08T15:15:30.601Z,63.10
2019-03-08T15:18:01.314Z,64.60
2019-03-08T15:20:32.343Z,62.60
2019-03-08T15:23:03.061Z,64.30
2019-03-08T15:25:33.835Z,65.70
2019-03-08T15:28:04.692Z,65.40
2019-03-08T15:30:35.467Z,65.50
2019-03-08T15:33:06.305Z,64.30
2019-03-08T15:35:37.080Z,64.70
2019-03-08T15:38:08.037Z,66.20
2019-03-08T15:40:40.332Z,64.20
2019-03-08T15:43:13.573Z,65.20
2019-03-08T15:45:44.649Z,66.00
2019-03-08T15:48:16.025Z,65.00
2019-03-08T15:50:47.990Z,66.10
2019-03-08T15:53:18.924Z,69.80
2019-03-08T15:55:53.037Z,84.40
2019-03-08T15:58:22.007Z,92.60
2019-03-08T16:00:52.734Z,98.30
2019-03-08T16:03:23.499Z,98.50
2019-03-08T16:05:54.257Z,98.40
2019-03-08T16:08:25.031Z,95.80
2019-03-08T16:10:58.629Z,95.10
2019-03-08T16:13:29.375Z,96.40
2019-03-08T16:16:00.071Z,96.80
2019-03-08T16:18:30.840Z,97.30
2019-03-08T16:21:01.574Z,97.60
2019-03-08T16:23:32.299Z,97.60
2019-03-08T16:26:03.056Z,98.40
2019-03-08T16:28:33.821Z,97.70
2019-03-08T16:31:14.172Z,97.60
2019-03-08T16:33:48.448Z,95.90
2019-03-08T16:36:40.748Z,93.30
2019-03-08T16:39:17.647Z,88.40
2019-03-08T16:42:05.797Z,87.80
2019-03-08T16:45:10.361Z,88.50
2019-03-08T16:47:58.873Z,87.80
2019-03-08T16:50:56.120Z,88.70
2019-03-08T16:53:49.036Z,87.00
2019-03-08T16:56:25.835Z,87.90
2019-03-08T16:59:02.641Z,88.20
2019-03-08T17:01:58.216Z,87.30
2019-03-08T17:04:43.583Z,87.30
2019-03-08T17:07:48.347Z,88.70
2019-03-08T17:10:46.900Z,91.70
2019-03-08T17:13:28.228Z,93.70
2019-03-08T17:16:32.074Z,93.20
2019-03-08T17:19:27.364Z,94.70
2019-03-08T17:22:20.126Z,95.70
2019-03-08T17:25:11.357Z,96.60
2019-03-08T17:28:10.341Z,98.30
2019-03-08T17:31:07.371Z,99.90
2019-03-08T17:33:55.982Z,99.90
2019-03-08T17:36:45.807Z,99.90
2019-03-08T17:39:34.353Z,99.90
2019-03-08T17:42:30.186Z,99.90
2019-03-08T17:45:18.686Z,99.90
2019-03-08T17:48:12.288Z,99.90
2019-03-08T17:50:58.838Z,99.90
2019-03-08T17:54:00.754Z,99.90
2019-03-08T17:56:50.457Z,99.90
2019-03-08T17:59:40.163Z,99.90
2019-03-08T18:02:29.898Z,99.90
2019-03-08T18:05:31.567Z,99.90
2019-03-08T18:08:20.298Z,99.90
2019-03-08T18:11:13.070Z,99.90
2019-03-08T18:14:02.761Z,99.90
2019-03-08T18:16:50.550Z,99.90
2019-03-08T18:19:43.302Z,99.90
2019-03-08T18:22:38.944Z,99.90
2019-03-08T18:25:28.645Z,99.90
2019-03-08T18:28:08.343Z,99.90
2019-03-08T18:30:49.721Z,99.90
2019-03-08T18:33:38.157Z,99.90
2019-03-08T18:36:15.919Z,99.10
2019-03-08T18:39:05.350Z,99.90
2019-03-08T18:41:57.820Z,99.50
2019-03-08T18:44:39.030Z,99.90
2019-03-08T18:47:23.243Z,99.30
2019-03-08T18:50:19.011Z,99.80
2019-03-08T18:53:11.456Z,99.70
2019-03-08T18:56:07.207Z,99.50
2019-03-08T18:59:00.140Z,99.70
2019-03-08T19:01:52.618Z,99.70
2019-03-08T19:04:41.188Z,99.90
2019-03-08T19:07:46.413Z,99.90
2019-03-08T19:10:39.215Z,99.20
2019-03-08T19:13:34.946Z,99.90
2019-03-08T19:16:33.811Z,99.90
2019-03-08T19:19:29.643Z,99.90
2019-03-08T19:22:09.012Z,99.90
2019-03-08T19:24:58.833Z,99.90
2019-03-08T19:27:38.870Z,99.50
2019-03-08T19:30:47.443Z,99.80
2019-03-08T19:33:23.663Z,99.40
2019-03-08T19:36:13.392Z,97.90
2019-03-08T19:39:06.253Z,99.70
2019-03-08T19:41:54.734Z,99.50
2019-03-08T19:44:53.811Z,99.50
2019-03-08T19:47:46.328Z,99.40
2019-03-08T19:50:34.948Z,98.70
2019-03-08T19:53:42.925Z,98.60
2019-03-08T19:56:38.966Z,97.50
2019-03-08T19:59:19.864Z,97.90
2019-03-08T20:02:12.582Z,98.00
2019-03-08T20:05:05.038Z,98.70
2019-03-08T20:07:57.590Z,98.80
2019-03-08T20:10:54.113Z,99.00
2019-03-08T20:13:42.402Z,98.30
2019-03-08T20:16:31.352Z,98.30
2019-03-08T20:19:14.811Z,98.70
2019-03-08T20:22:04.723Z,98.80
2019-03-08T20:24:54.395Z,97.90
2019-03-08T20:27:44.304Z,97.90
2019-03-08T20:30:37.165Z,97.70
2019-03-08T20:33:39.481Z,96.40
2019-03-08T20:36:44.533Z,96.90
2019-03-08T20:39:30.761Z,97.20
2019-03-08T20:42:23.894Z,96.60
2019-03-08T20:45:05.385Z,96.70
2019-03-08T20:47:36.704Z,95.30
2019-03-08T20:50:09.482Z,95.70
2019-03-08T20:52:40.392Z,95.00
2019-03-08T20:55:11.129Z,95.40
2019-03-08T20:57:41.945Z,95.10
2019-03-08T21:00:13.211Z,94.60
2019-03-08T21:02:44.054Z,94.20
2019-03-08T21:05:14.763Z,94.30
2019-03-08T21:07:45.539Z,93.80
2019-03-08T21:10:16.591Z,93.40
2019-03-08T21:12:47.633Z,93.30
2019-03-08T21:15:25.119Z,93.10
2019-03-08T21:17:50.753Z,92.90
2019-03-08T21:20:21.461Z,92.70
2019-03-08T21:22:52.296Z,92.80
2019-03-08T21:25:23.014Z,92.30
2019-03-08T21:27:53.788Z,92.70
2019-03-08T21:30:24.534Z,91.90
2019-03-08T21:32:55.341Z,92.20
2019-03-08T21:35:26.086Z,91.90
2019-03-08T21:37:56.908Z,90.80
2019-03-08T21:40:27.619Z,91.10
2019-03-08T21:42:58.411Z,91.30
2019-03-08T21:45:29.131Z,91.60
2019-03-08T21:48:00.188Z,91.50
2019-03-08T21:50:30.944Z,90.90
2019-03-08T21:53:01.741Z,92.30
2019-03-08T21:55:32.666Z,91.60
2019-03-08T21:58:03.463Z,91.70
2019-03-08T22:00:34.179Z,90.70
2019-03-08T22:03:04.984Z,90.80
2019-03-08T22:05:37.691Z,91.00
2019-03-08T22:08:16.827Z,90.60
2019-03-08T22:10:54.745Z,90.30
2019-03-08T22:13:25.543Z,89.40
2019-03-08T22:15:56.289Z,89.90
2019-03-08T22:18:27.065Z,90.50
2019-03-08T22:20:57.796Z,90.50
2019-03-08T22:23:28.578Z,89.90
2019-03-08T22:25:59.335Z,89.80
2019-03-08T22:28:30.091Z,90.10
2019-03-08T22:31:01.807Z,89.60
2019-03-08T22:33:32.472Z,89.90
2019-03-08T22:36:03.229Z,89.50
2019-03-08T22:38:33.984Z,89.60
2019-03-08T22:41:04.740Z,89.20
2019-03-08T22:43:36.579Z,89.40
2019-03-08T22:46:07.333Z,88.30
2019-03-08T22:48:38.079Z,88.60
2019-03-08T22:51:09.797Z,88.40
2019-03-08T22:53:40.544Z,88.00
2019-03-08T22:56:11.278Z,87.20
2019-03-08T22:58:41.995Z,87.60
2019-03-08T23:01:15.014Z,87.10
2019-03-08T23:03:45.757Z,87.00
2019-03-08T23:06:16.704Z,87.70
2019-03-08T23:08:47.500Z,88.00
2019-03-08T23:11:18.307Z,88.60
2019-03-08T23:13:49.093Z,88.10
2019-03-08T23:16:19.888Z,87.80
2019-03-08T23:18:50.645Z,88.10
2019-03-08T23:21:21.474Z,88.40
2019-03-08T23:23:52.200Z,89.30
2019-03-08T23:26:22.924Z,89.00
2019-03-08T23:29:06.013Z,88.40
2019-03-08T23:31:55.735Z,88.90
2019-03-08T23:34:26.530Z,88.50
2019-03-08T23:36:57.297Z,88.40
2019-03-08T23:39:28.013Z,88.10
2019-03-08T23:41:58.769Z,88.90
2019-03-08T23:44:29.425Z,88.40
2019-03-08T23:47:00.514Z,88.30
2019-03-08T23:49:31.257Z,88.00
2019-03-08T23:52:02.027Z,87.30
2019-03-08T23:54:32.729Z,87.90
2019-03-08T23:57:03.498Z,88.30
2019-03-08T23:59:34.554Z,87.40
